Tiempo atmosférico en la estación meteorológica de Santervás de la Vega, Villapún, Palencia (985 m.)



Fecha
DESCASC
Temp. máxima en grados centígrados (hora)
DESCASC
Temp. mínima en grados centígrados (hora)
DESCASC
Temp. media en grados centígrados
DESCASC
Racha de viento máxima en m/sg (hora)
DESCASC
Velocidad máxima media en intervalos de 10 minutos(hora)
DESCASC
Precipitaciones diarias en mm
DESCASC
Precipitaciones de 00:00 a 06:00 en mm
DESCASC
Precipitaciones de 06:00 a 12:00 en mm
DESCASC
Precipitaciones de 12:00 a 18:00 en mm
DESCASC
Precipitaciones de 18:00 a 24:00 en mm
DESCASC
22-04-2019 14.1 (18:30) 4.5 (06:00) 9.3 7.5 (15:30) 5 (15:30) 0 0 0 0 0
21-04-2019 15.2 (15:40) 2.3 (06:10) 8.7 12.5 (16:50) 8.61 (16:30) 0 0 0 0 0
20-04-2019 18.1 (15:50) 8.2 (07:30) 13.2 15.83 (13:00) 10.83 (12:30) 0 0 0 0 0
19-04-2019 13.1 (16:30) 6.9 (06:20) 10 14.44 (18:40) 8.61 (18:40) 3.2 3 0.2 0 0
18-04-2019 9.7 (00:00) 6.7 (00:00) 8.2 9.17 (23:59) 6.67 (23:59) 13.8 4 4.8 1.8 3.2
17-04-2019 16.5 (18:20) 5.4 (00:00) 11 15 (20:20) 9.17 (20:30) 0 0 0 0 0
16-04-2019 15.4 (18:00) 3.7 (00:00) 9.5 8.33 (17:50) 4.44 (17:10) 0 0 0 0 0
15-04-2019 17 (15:50) 6.5 (00:00) 11.8 16.11 (17:00) 11.94 (17:00) 1.6 0 0 1.6 0
14-04-2019 19.3 (17:20) 6.7 (00:00) 13 7.5 (16:40) 3.89 (02:50) 0 0 0 0 0
13-04-2019 17.5 (18:50) 0.2 (00:00) 8.9 9.17 (16:30) 5.56 (17:10) 0 0 0 0 0
12-04-2019 14.2 (17:10) -1.6 (-00:0) 6.3 7.5 (12:30) 3.89 (11:40) 0 0 0 0 0
11-04-2019 11.6 (16:50) -1.8 (-00:0) 4.9 5.83 (16:40) 3.33 (12:30) 0.2 0 0.2 0 0
10-04-2019 9.3 (19:30) 0.6 (00:00) 5 7.5 (17:30) 5 (19:50) 4.6 0 1.2 2.6 0.8
09-04-2019 10.2 (17:50) 1.2 (00:00) 5.7 13.61 (17:50) 8.61 (17:40) 4.6 0.2 3.2 1.2 0
08-04-2019 11.3 (16:40) 3.1 (00:00) 7.2 11.11 (20:30) 7.78 (16:50) 3.4 2.8 0.6 0 0
07-04-2019 9.9 (16:00) -0.6 (-00:0) 4.6 11.94 (18:10) 7.78 (18:10) 4 0 0 0 4
06-04-2019 6.6 (18:50) -1.1 (-00:0) 2.7 14.17 (18:20) 8.89 (18:20) 3 0 0.6 2.4 0
05-04-2019 7.9 (17:30) 0.2 (00:00) 4.1 10.28 (18:00) 6.67 (16:40) 4.4 4 0.4 0 0
04-04-2019 8.3 (15:20) -5.2 (-00:0) 1.6 13.06 (13:10) 7.78 (18:30) 4.6 0 0 0 4.6
03-04-2019 8.4 (15:10) -2.3 (23:20) 3 13.33 (14:30) 6.94 (15:30) 0.4 0 0 0.4 0
02-04-2019 15.3 (17:10) 1.6 (00:00) 8.5 8.89 (19:50) 5.28 (19:50) 0 0 0 0 0
01-04-2019 15.5 (16:20) 0.8 (00:00) 8.2 7.78 (16:50) 4.17 (21:50) 0 0 0 0 0
31-03-2019 16.3 (16:20) 2.2 (00:00) 9.2 10 (14:50) 6.11 (13:50) 0 0 0 0 0
30-03-2019 16.2 (16:20) 2.4 (00:00) 9.3 7.78 (14:20) 3.33 (15:00) 0 0 0 0 0
29-03-2019 16.7 (17:00) 0.9 (00:00) 8.8 7.78 (00:40) 5 (00:40) 0 0 0 0 0
28-03-2019 15.6 (15:30) -2 (-00:0) 6.8 13.06 (12:50) 7.78 (12:50) 0 0 0 0 0
27-03-2019 15 (13:40) 2.9 (00:00) 9 14.17 (12:40) 10 (13:20) 0 0 0 0 0
26-03-2019 13.4 (15:10) 1.8 (00:00) 7.6 20.28 (10:20) 13.61 (18:00) 0 0 0 0 0
25-03-2019 12.6 (13:40) -0.1 (00:00) 6.3 15.28 (17:10) 10 (17:20) 0 0 0 0 0

Gráficas

Temp. máximas Temp. mínimas Temp. medias Precipitaciones Rachas de viento máximas Velocidades máximas media en intervalos de 10 minutos

Datos horarios

Fecha y hora oficial Temperatura (ºC) Velocidad del viento (km/h) Dirección del viento Racha (km/h) Dirección de racha Precipitación (mm) Presión (hPa) Tendencia (hPa) Humedad (%)
2019-04-23 23:00:00 2.4 4 Oeste 9 Oeste 0 -- -- 87
2019-04-23 22:00:00 2.9 6 Noroeste 26 Noroeste 0 -- -- 76
2019-04-23 21:00:00 5.1 13 Noroeste 42 Oeste 0 -- -- 67
2019-04-23 20:00:00 7.4 22 Noroeste 38 Noroeste 0.2 -- -- 63
2019-04-23 19:00:00 6.9 15 Noroeste 38 Noroeste 0 -- -- 76
2019-04-23 18:00:00 5.9 30 Noroeste 48 Oeste 0 -- -- 79
2019-04-23 17:00:00 10.6 23 Oeste 43 Oeste 0 -- -- 55
2019-04-23 16:00:00 8.6 11 Noroeste 28 Oeste 0 -- -- 64
2019-04-23 15:00:00 7.7 16 Oeste 31 Oeste 0 -- -- 65
2019-04-23 14:00:00 7.2 21 Oeste 32 Oeste 0 -- -- 67
2019-04-23 13:00:00 7.5 20 Oeste 28 Oeste 0 -- -- 74
2019-04-23 12:00:00 5.8 18 Oeste 28 Oeste 0 -- -- 85
2019-04-23 11:00:00 5.5 19 Oeste 35 Oeste 0 -- -- 85
2019-04-23 10:00:00 4.5 17 Oeste 28 Oeste 0 -- -- 95
2019-04-23 09:00:00 4.6 21 Oeste 30 Oeste 0.2 -- -- 95
2019-04-23 08:00:00 4.7 10 Oeste 26 Oeste 0.4 -- -- 96
2019-04-23 07:00:00 5.9 19 Oeste 27 Oeste 0.2 -- -- 92
2019-04-23 06:00:00 6.8 9 Oeste 25 Oeste 0 -- -- 96
2019-04-23 05:00:00 7.1 16 Oeste 29 Oeste 0.2 -- -- 95
2019-04-23 04:00:00 7.2 7 Oeste 21 Noroeste 0.8 -- -- 96
2019-04-23 03:00:00 7.3 10 Noroeste 19 Noroeste 0.2 -- -- 95
2019-04-23 02:00:00 7.6 10 Noroeste 24 Noroeste 0 -- -- 93
2019-04-23 01:00:00 8.1 17 Noroeste 40 Oeste 0 -- -- 89
2019-04-23 00:00:00 9.8 7 Sudoeste 18 Oeste 0 -- -- 76
2019-04-22 23:00:00 10.1 8 Sudoeste 15 Sudoeste 0 -- -- 72
2019-04-22 22:00:00 9.7 10 Sudoeste 15 Sur 0 -- -- 76
2019-04-22 21:00:00 11 10 Sudoeste 18 Sudoeste 0 -- -- 69
2019-04-22 20:00:00 13 11 Sudoeste 25 Sudoeste 0 -- -- 58
2019-04-22 19:00:00 13.8 14 Sudoeste 26 Sudoeste 0 -- -- 57
2019-04-22 18:00:00 13.6 15 Oeste 26 Sudoeste 0 -- -- 59
2019-04-22 17:00:00 12.4 12 Sudoeste 23 Oeste 0 -- -- 62
2019-04-22 16:00:00 12.4 14 Oeste 27 Oeste 0 -- -- 63
2019-04-22 15:00:00 12.6 14 Oeste 26 Oeste 0 -- -- 58
2019-04-22 14:00:00 12 12 Oeste 21 Sudoeste 0 -- -- 60
2019-04-22 13:00:00 11.6 9 Oeste 19 Oeste 0 -- -- 60
2019-04-22 12:00:00 10.3 10 Oeste 25 Oeste 0 -- -- 67
2019-04-22 11:00:00 9.4 12 Oeste 19 Noroeste 0 -- -- 77
2019-04-22 10:00:00 7.8 9 Oeste 13 Oeste 0 -- -- 84
2019-04-22 09:00:00 6.7 0 Calma 5 Nordeste 0 -- -- 91
2019-04-22 08:00:00 5.6 3 Nordeste 9 Nordeste 0 -- -- 92
2019-04-22 07:00:00 5.2 7 Nordeste 12 Nordeste 0 -- -- 92
2019-04-22 06:00:00 4.5 6 Nordeste 12 Nordeste 0 -- -- 93
2019-04-22 05:00:00 5 8 Nordeste 11 Nordeste 0 -- -- 92
2019-04-22 04:00:00 5.2 6 Nordeste 10 Nordeste 0 -- -- 90
2019-04-22 03:00:00 5.7 5 Nordeste 8 Nordeste 0 -- -- 91
2019-04-22 02:00:00 5.5 5 Nordeste 10 Este 0 -- -- 91
2019-04-22 01:00:00 6.7 7 Este 18 Este 0 -- -- 86
2019-04-22 00:00:00 8.2 10 Este 21 Este 0 -- -- 78
2019-04-21 23:00:00 8.9 12 Este 25 Este 0 -- -- 74
2019-04-21 22:00:00 9.5 16 Este 24 Este 0 -- -- 68
2019-04-21 21:00:00 10.3 13 Este 28 Este 0 -- -- 66
2019-04-21 20:00:00 11.3 21 Este 36 Este 0 -- -- 59
2019-04-21 19:00:00 12.8 25 Este 39 Este 0 -- -- 54
2019-04-21 18:00:00 14.2 26 Este 40 Este 0 -- -- 51
2019-04-21 17:00:00 14.2 24 Este 45 Este 0 -- -- 52
2019-04-21 16:00:00 15.1 28 Este 44 Este 0 -- -- 46
2019-04-21 15:00:00 14.7 28 Este 42 Este 0 -- -- 48
2019-04-21 14:00:00 13.9 23 Este 36 Este 0 -- -- 48
2019-04-21 13:00:00 14.1 22 Este 40 Este 0 -- -- 50
2019-04-21 12:00:00 12.8 18 Este 32 Este 0 -- -- 54
2019-04-21 11:00:00 11.7 11 Sur 22 Este 0 -- -- 68
2019-04-21 10:00:00 10.6 10 Sur 16 Este 0 -- -- 70
2019-04-21 09:00:00 9 9 Este 15 Nordeste 0 -- -- 76
2019-04-21 08:00:00 5.9 12 Nordeste 21 Nordeste 0 -- -- 80
2019-04-21 07:00:00 4.4 9 Nordeste 17 Nordeste 0 -- -- 85
2019-04-21 06:00:00 2.8 0 Calma -- -- 0 -- -- 88
2019-04-21 05:00:00 5 0 Calma 14 Este 0 -- -- 85
2019-04-21 04:00:00 8 12 Este 25 Este 0 -- -- 77
2019-04-21 03:00:00 9 15 Este 32 Este 0 -- -- 74
2019-04-21 02:00:00 9.5 20 Este 35 Este 0 -- -- 71
2019-04-21 01:00:00 9.3 19 Este 33 Este 0 -- -- 70
2019-04-21 00:00:00 8.9 19 Este 32 Este 0 -- -- 69
2019-04-20 23:00:00 9.4 18 Este 24 Nordeste 0 -- -- 66
2019-04-20 22:00:00 9.1 15 Nordeste 23 Nordeste 0 -- -- 59
2019-04-20 21:00:00 11.7 14 Este 33 Este 0 -- -- 54
2019-04-20 20:00:00 15.1 23 Este 46 Este 0 -- -- 45
2019-04-20 19:00:00 16.5 31 Este 42 Este 0 -- -- 43
2019-04-20 18:00:00 17.3 32 Este 50 Este 0 -- -- 43
2019-04-20 17:00:00 18 33 Este 48 Este 0 -- -- 43
2019-04-20 16:00:00 18 31 Este 54 Este 0 -- -- 41
2019-04-20 15:00:00 17.8 36 Este 54 Este 0 -- -- 41
2019-04-20 14:00:00 17.5 35 Este 56 Este 0 -- -- 41
2019-04-20 13:00:00 17.2 38 Este 57 Este 0 -- -- 35
2019-04-20 12:00:00 16.6 33 Este 43 Este 0 -- -- 49
2019-04-20 11:00:00 15.2 27 Este 41 Este 0 -- -- 56
2019-04-20 10:00:00 12.7 6 Este 15 Este 0 -- -- 71
2019-04-20 09:00:00 9.9 8 Nordeste 27 Este 0 -- -- 80
2019-04-20 08:00:00 8.6 14 Este 26 Este 0 -- -- 84
2019-04-20 07:00:00 8.7 19 Este 30 Este 0 -- -- 83
2019-04-20 06:00:00 9.2 20 Este 31 Este 0 -- -- 79
2019-04-20 05:00:00 9.7 21 Este 35 Este 0 -- -- 76
2019-04-20 04:00:00 8.9 18 Este 25 Este 0 -- -- 82
2019-04-20 03:00:00 8.8 13 Este 23 Este 0 -- -- 84
2019-04-20 02:00:00 9.6 15 Este 30 Este 0 -- -- 82
2019-04-20 01:00:00 9.8 18 Este 27 Este 0 -- -- 82
2019-04-20 00:00:00 9.7 19 Este 28 Este 0 -- -- 84
2019-04-19 23:00:00 10.3 13 Este 24 Este 0 -- -- 80
2019-04-19 22:00:00 11.3 15 Este 25 Este 0 -- -- 74
2019-04-19 21:00:00 11.9 20 Este 34 Este 0 -- -- 71
2019-04-19 20:00:00 12.6 21 Este 48 Este 0 -- -- 65
2019-04-19 19:00:00 12.5 24 Sudeste 52 Sudeste 0 -- -- 65
2019-04-19 18:00:00 12.7 24 Sudeste 47 Este 0 -- -- 68
2019-04-19 17:00:00 12.8 26 Sudeste 39 Sudeste 0 -- -- 71
2019-04-19 16:00:00 12.6 21 Este 37 Sudeste 0 -- -- 76
2019-04-19 15:00:00 10.9 27 Sudeste 40 Este 0 -- -- 79
2019-04-19 14:00:00 11 24 Este 38 Este 0 -- -- 81
2019-04-19 13:00:00 10.2 24 Este 38 Este 0 -- -- 86
2019-04-19 12:00:00 10 24 Sudeste 37 Sudeste 0 -- -- 85
2019-04-19 11:00:00 8.7 21 Este 34 Sudeste 0 -- -- 93
2019-04-19 10:00:00 7.5 21 Este 33 Este 0 -- -- 97
2019-04-19 09:00:00 7.3 22 Este 38 Este 0 -- -- 97
2019-04-19 08:00:00 7.1 20 Este 31 Sudeste 0 -- -- 98
2019-04-19 07:00:00 7 19 Este 32 Este 0.2 -- -- 98
2019-04-19 06:00:00 7 19 Sudeste 31 Este 0.4 -- -- 98
2019-04-19 05:00:00 7.2 20 Este 36 Sudeste 0.6 -- -- 97
2019-04-19 04:00:00 7.6 25 Sudeste 42 Este 0.4 -- -- 96
2019-04-19 03:00:00 7.8 26 Este 39 Este 0.4 -- -- 96
2019-04-19 02:00:00 7.5 25 Este 35 Este 0.8 -- -- 96
2019-04-19 01:00:00 7.2 15 Este 30 Este 0.4 -- -- 96
2019-04-19 00:00:00 7.4 24 Este 33 Este 0.2 -- -- 96
2019-04-18 23:00:00 7.8 21 Este 31 Este 0 -- -- 94
2019-04-18 22:00:00 7.7 13 Este 24 Este 0.2 -- -- 97
2019-04-18 21:00:00 7.7 15 Este 22 Este 0.2 -- -- 96
2019-04-18 20:00:00 7.4 6 Este 19 Este 1.6 -- -- 97
2019-04-18 19:00:00 7.6 12 Sudeste 23 Este 1 -- -- 96
2019-04-18 18:00:00 7.6 17 Este 26 Este 1.2 -- -- 95
2019-04-18 17:00:00 8 14 Este 25 Este 0.2 -- -- 92
2019-04-18 16:00:00 9.1 13 Este 28 Sudeste 0.4 -- -- 88
2019-04-18 15:00:00 8.7 15 Sudeste 23 Sudeste 0 -- -- 92
2019-04-18 14:00:00 8.7 13 Sudeste 19 Sudeste 0 -- -- 91
2019-04-18 13:00:00 8.5 14 Sudeste 20 Sudeste 0 -- -- 92
2019-04-18 12:00:00 7.9 12 Sudeste 17 Sur 1.8 -- -- 98
2019-04-18 11:00:00 7 0 Calma 11 Oeste 2 -- -- 98
2019-04-18 10:00:00 7.3 6 Sudoeste 10 Sudoeste 1 -- -- 98
2019-04-18 09:00:00 7.2 8 Sur 11 Sur 0 -- -- 98
2019-04-18 08:00:00 6.7 0 Calma -- -- 0 -- -- 98
2019-04-18 07:00:00 6.7 0 Calma 11 Oeste 0 -- -- 97
2019-04-18 06:00:00 7 7 Oeste 19 Oeste 0 -- -- 97
2019-04-18 05:00:00 7.3 10 Oeste 24 Oeste 0.8 -- -- 96
2019-04-18 04:00:00 7.5 7 Sudoeste 15 Sudoeste 1.4 -- -- 96
2019-04-18 03:00:00 7.7 12 Sudoeste 21 Sudoeste 1.4 -- -- 95
2019-04-18 02:00:00 8.9 9 Oeste 21 Sudoeste 0.2 -- -- 88
2019-04-18 01:00:00 9.4 5 Noroeste 26 Noroeste 0.2 -- -- 91
2019-04-18 00:00:00 9.7 8 Noroeste 25 Sur 0 -- -- 88
2019-04-17 23:00:00 11.9 12 Sur 30 Sur 0 -- -- 83
2019-04-17 22:00:00 12.1 12 Sur 37 Sur 0 -- -- 81
2019-04-17 21:00:00 13.1 12 Sur 54 Sudoeste 0 -- -- 75
2019-04-17 20:00:00 15.6 24 Sur 36 Sur 0 -- -- 54
2019-04-17 19:00:00 16.1 23 Sur 32 Sur 0 -- -- 53
2019-04-17 18:00:00 16.3 18 Sudeste 29 Sudeste 0 -- -- 59
2019-04-17 17:00:00 14.6 17 Sudeste 24 Sudeste 0 -- -- 61
2019-04-17 16:00:00 14 6 Sur 18 Sudoeste 0 -- -- 64
2019-04-17 15:00:00 14 13 Sur 29 Sur 0 -- -- 63
2019-04-17 14:00:00 14.1 21 Sudoeste 39 Sudoeste 0 -- -- 64
2019-04-17 13:00:00 13.9 18 Sur 31 Sur 0 -- -- 70
2019-04-17 12:00:00 12.4 13 Sudeste 23 Sudeste 0 -- -- 76
2019-04-17 11:00:00 11.3 14 Sudeste 21 Sudeste 0 -- -- 79
2019-04-17 10:00:00 9.3 12 Sudeste 18 Sudeste 0 -- -- 84
2019-04-17 09:00:00 7.3 5 Este 9 Este 0 -- -- 88
2019-04-17 08:00:00 5.5 7 Este 12 Este 0 -- -- 88
2019-04-17 07:00:00 6.3 7 Este 10 Sudeste 0 -- -- 83
2019-04-17 06:00:00 7 5 Sudeste 11 Sudeste 0 -- -- 81
2019-04-17 05:00:00 6.4 9 Este 16 Este 0 -- -- 84
2019-04-17 04:00:00 6.5 9 Este 13 Este 0 -- -- 84
2019-04-17 03:00:00 7.4 10 Este 13 Este 0 -- -- 83
2019-04-17 02:00:00 8.6 11 Nordeste 13 Nordeste 0 -- -- 75
2019-04-17 01:00:00 8 9 Nordeste 11 Nordeste 0 -- -- 72
2019-04-17 00:00:00 8.4 8 Este 13 Nordeste 0 -- -- 65
2019-04-16 23:00:00 9.4 9 Nordeste 12 Nordeste 0 -- -- 64
2019-04-16 22:00:00 9.8 9 Nordeste 12 Nordeste 0 -- -- 62
2019-04-16 21:00:00 11.3 4 Este 9 Sudeste 0 -- -- 60
2019-04-16 20:00:00 14.1 5 Sudeste 18 Sur 0 -- -- 46
2019-04-16 19:00:00 15.1 13 Sur 26 Sur 0 -- -- 40
2019-04-16 18:00:00 15.4 12 Sur 30 Sur 0 -- -- 42
2019-04-16 17:00:00 14.8 13 Sur 26 Sur 0 -- -- 47
2019-04-16 16:00:00 14.4 12 Sur 27 Sudeste 0 -- -- 52
2019-04-16 15:00:00 13.8 13 Sur 23 Sur 0 -- -- 56
2019-04-16 14:00:00 12.8 8 Sur 18 Sudeste 0 -- -- 61
2019-04-16 13:00:00 11.2 6 Sudeste 17 Sudeste 0 -- -- 64
2019-04-16 12:00:00 10 5 Sudeste 14 Sur 0 -- -- 75
2019-04-16 11:00:00 7.5 4 Sudeste 14 Sudeste 0 -- -- 87
2019-04-16 10:00:00 6.2 10 Sudeste 17 Sur 0 -- -- 96
2019-04-16 09:00:00 5.5 8 Este 13 Sudeste 0 -- -- 98
2019-04-16 08:00:00 5.2 0 Calma 2 Este 0 -- -- 99
2019-04-16 07:00:00 4.7 3 Este 12 Este 0 -- -- 99
2019-04-16 06:00:00 3.9 6 Nordeste 9 Nordeste 0 -- -- 97
2019-04-16 05:00:00 4.9 5 Sudeste 10 Sudeste 0 -- -- 97
2019-04-16 04:00:00 6.2 4 Sudeste 15 Este 0 -- -- 97
2019-04-16 03:00:00 5.1 9 Este 15 Este 0 -- -- 98
2019-04-16 02:00:00 4 0 Calma 13 Noroeste 0 -- -- 91
2019-04-16 01:00:00 4.4 6 Noroeste 11 Oeste 0 -- -- 90
2019-04-16 00:00:00 6.5 8 Noroeste 17 Noroeste 0 -- -- 84
2019-04-15 23:00:00 7.6 11 Noroeste 24 Oeste 0 -- -- 79
2019-04-15 22:00:00 8.9 12 Noroeste 27 Oeste 0 -- -- 71
2019-04-15 21:00:00 10.4 18 Noroeste 33 Noroeste 0 -- -- 65
2019-04-15 20:00:00 12.3 19 Noroeste 45 Oeste 0 -- -- 59
2019-04-15 19:00:00 11.9 18 Noroeste 39 Noroeste 0 -- -- 67
2019-04-15 18:00:00 13.7 22 Noroeste 58 Oeste 0 -- -- 63
2019-04-15 17:00:00 15.6 43 Noroeste 58 Noroeste 0.2 -- -- 58
2019-04-15 16:00:00 17 35 Oeste 51 Oeste 0 -- -- 54
2019-04-15 15:00:00 14.7 19 Oeste 44 Oeste 0.2 -- -- 87
2019-04-15 14:00:00 14.7 32 Oeste 51 Oeste 0 -- -- 78
2019-04-15 13:00:00 14.6 13 Sudoeste 30 Sudoeste 1.2 -- -- 93
2019-04-15 12:00:00 15.6 13 Sudoeste 22 Sudoeste 0 -- -- 75
2019-04-15 11:00:00 13.8 10 Sur 15 Sur 0 -- -- 82
2019-04-15 10:00:00 12 7 Sur 10 Sur 0 -- -- 86
2019-04-15 09:00:00 10.5 5 Sudeste 7 Sudeste 0 -- -- 92
2019-04-15 08:00:00 9.8 3 Este 6 Este 0 -- -- 92
2019-04-15 07:00:00 10.3 0 Calma 4 Nordeste 0 -- -- 90
2019-04-15 06:00:00 10.8 3 Nordeste 7 Nordeste 0 -- -- 89
2019-04-15 05:00:00 10.5 4 Este 5 Nordeste 0 -- -- 89
2019-04-15 04:00:00 10.4 0 Calma 5 Sudeste 0 -- -- 88
2019-04-15 03:00:00 9.9 0 Calma 5 Este 0 -- -- 88
2019-04-15 02:00:00 8.7 2 Este -- -- 0 -- -- 92
2019-04-15 01:00:00 9.5 3 Noroeste 8 Noroeste 0 -- -- 89
2019-04-15 00:00:00 9.9 6 Noroeste 9 Oeste 0 -- -- 86
2019-04-14 23:00:00 12.1 6 Oeste 12 Oeste 0 -- -- 79
2019-04-14 22:00:00 14.1 9 Oeste 13 Oeste 0 -- -- 73
2019-04-14 21:00:00 15.6 6 Sudoeste 13 Sudoeste 0 -- -- 66
2019-04-14 20:00:00 17.7 7 Sudoeste 17 Sudoeste 0 -- -- 57
2019-04-14 19:00:00 18 11 Oeste 19 Oeste 0 -- -- 57
2019-04-14 18:00:00 19 12 Sudoeste 25 Sur 0 -- -- 53
2019-04-14 17:00:00 19 12 Sur 27 Sudoeste 0 -- -- 55
2019-04-14 16:00:00 18.7 10 Sur 19 Sur 0 -- -- 56
2019-04-14 15:00:00 17.4 2 Sudoeste 15 Noroeste 0 -- -- 61
2019-04-14 14:00:00 17.3 6 Sur 17 Noroeste 0 -- -- 61
2019-04-14 13:00:00 15.2 4 Oeste 17 Oeste 0 -- -- 69
2019-04-14 12:00:00 13.9 7 Oeste 14 Oeste 0 -- -- 73
2019-04-14 11:00:00 11.9 8 Oeste 14 Oeste 0 -- -- 82
2019-04-14 10:00:00 10 8 Oeste 12 Oeste 0 -- -- 90
2019-04-14 09:00:00 7.6 4 Nordeste 7 Nordeste 0 -- -- 93
2019-04-14 08:00:00 7 0 Calma 10 Noroeste 0 -- -- 93
2019-04-14 07:00:00 8 6 Noroeste 14 Oeste 0 -- -- 88
2019-04-14 06:00:00 9.1 8 Noroeste 17 Oeste 0 -- -- 83
2019-04-14 05:00:00 9.8 10 Noroeste 21 Noroeste 0 -- -- 79
2019-04-14 04:00:00 10 8 Noroeste 16 Noroeste 0 -- -- 78
2019-04-14 03:00:00 11.1 13 Noroeste 21 Oeste 0 -- -- 74
2019-04-14 02:00:00 11.3 9 Noroeste 15 Noroeste 0 -- -- 71
2019-04-14 01:00:00 11 11 Noroeste 17 Noroeste 0 -- -- 72
2019-04-14 00:00:00 11.7 11 Noroeste 19 Oeste 0 -- -- 68
2019-04-13 23:00:00 11.2 11 Oeste 16 Noroeste 0 -- -- 69
2019-04-13 22:00:00 11.9 7 Oeste 12 Sudoeste 0 -- -- 59
2019-04-13 21:00:00 13.6 8 Oeste 12 Sudoeste 0 -- -- 54
2019-04-13 20:00:00 15.7 8 Oeste 23 Oeste 0 -- -- 46
2019-04-13 19:00:00 17.2 15 Oeste 30 Oeste 0 -- -- 39
2019-04-13 18:00:00 17.4 15 Oeste 33 Oeste 0 -- -- 38
2019-04-13 17:00:00 17 17 Oeste 33 Oeste 0 -- -- 41
2019-04-13 16:00:00 16.2 17 Oeste 28 Oeste 0 -- -- 46
2019-04-13 15:00:00 15.3 17 Noroeste 28 Oeste 0 -- -- 47
2019-04-13 14:00:00 14.4 15 Oeste 26 Noroeste 0 -- -- 52
2019-04-13 13:00:00 13.6 13 Oeste 22 Oeste 0 -- -- 52
2019-04-13 12:00:00 12.3 9 Oeste 18 Oeste 0 -- -- 52
2019-04-13 11:00:00 10.9 5 Sudoeste 13 Oeste 0 -- -- 56
2019-04-13 10:00:00 8.9 5 Oeste 9 Oeste 0 -- -- 62
2019-04-13 09:00:00 4.7 5 Oeste -- -- 0 -- -- 86
2019-04-13 08:00:00 0.9 3 Noroeste 6 Noroeste 0 -- -- 92
2019-04-13 07:00:00 0.4 0 Calma -- -- 0 -- -- 93
2019-04-13 06:00:00 0.4 0 Calma 7 Nordeste 0 -- -- 94
2019-04-13 05:00:00 0.5 4 Nordeste 9 Nordeste 0 -- -- 92
2019-04-13 04:00:00 2.5 6 Nordeste 13 Nordeste 0 -- -- 85
2019-04-13 03:00:00 3.7 11 Nordeste 13 Nordeste 0 -- -- 83
2019-04-13 02:00:00 2.6 5 Nordeste 8 Nordeste 0 -- -- 82
2019-04-13 01:00:00 4.1 4 Este 8 Nordeste 0 -- -- 78
2019-04-13 00:00:00 5.1 6 Nordeste 12 Este 0 -- -- 74
2019-04-12 23:00:00 4.7 3 Sudoeste 8 Este 0 -- -- 75
2019-04-12 22:00:00 6 5 Oeste 10 Sudoeste 0 -- -- 71
2019-04-12 21:00:00 9.7 4 Sudoeste 11 Oeste 0 -- -- 59
2019-04-12 20:00:00 12.8 9 Sur 15 Sudeste 0 -- -- 51
2019-04-12 19:00:00 13.9 9 Sudeste 14 Sudeste 0 -- -- 38
2019-04-12 18:00:00 14.2 11 Sudeste 18 Sudeste 0 -- -- 39
2019-04-12 17:00:00 14 5 Este 18 Sudeste 0 -- -- 38
2019-04-12 16:00:00 13.1 5 Este 14 Norte 0 -- -- 45
2019-04-12 15:00:00 11.7 3 Este 23 Noroeste 0 -- -- 51
2019-04-12 14:00:00 10.4 14 Oeste 24 Oeste 0 -- -- 58
2019-04-12 13:00:00 9.5 10 Noroeste 27 Oeste 0 -- -- 64
2019-04-12 12:00:00 8.1 12 Oeste 22 Oeste 0 -- -- 65
2019-04-12 11:00:00 6.8 7 Noroeste 15 Noroeste 0 -- -- 73
2019-04-12 10:00:00 4.4 6 Norte 13 Norte 0 -- -- 92
2019-04-12 09:00:00 1.1 5 Norte 10 Norte 0 -- -- 100
2019-04-12 08:00:00 -1.5 0 Calma 0 Calma 0 -- -- 98
2019-04-12 07:00:00 -1.2 0 Calma -- -- 0 -- -- 98
2019-04-12 06:00:00 0.3 0 Calma 7 Nordeste 0 -- -- 99
2019-04-12 05:00:00 1.5 6 Nordeste 8 Este 0 -- -- 99
2019-04-12 04:00:00 0.4 3 Este 8 Este 0 -- -- 99
2019-04-12 03:00:00 -0.6 0 Calma -- -- 0 -- -- 94
2019-04-12 02:00:00 0.8 0 Calma -- -- 0 -- -- 97
2019-04-12 01:00:00 1.1 0 Calma -- -- 0 -- -- 94
2019-04-12 00:00:00 1.8 0 Calma -- -- 0 -- -- 91
2019-04-11 23:00:00 4.4 0 Calma -- -- 0 -- -- 88
2019-04-11 22:00:00 6.6 0 Calma 13 Nordeste 0 -- -- 74
2019-04-11 21:00:00 8.1 7 Nordeste 19 Nordeste 0 -- -- 67
2019-04-11 20:00:00 10.3 5 Sur 8 Sudeste 0 -- -- 61
2019-04-11 19:00:00 10.6 3 Sur 12 Sudeste 0 -- -- 57
2019-04-11 18:00:00 10.7 8 Sudeste 14 Sudeste 0 -- -- 56
2019-04-11 17:00:00 11.3 6 Sudeste 21 Oeste 0 -- -- 50
2019-04-11 16:00:00 10.1 5 Norte 14 Oeste 0 -- -- 55
2019-04-11 15:00:00 10.7 3 Sur 14 Sur 0 -- -- 59
2019-04-11 14:00:00 9.5 9 Sudeste 18 Sudeste 0 -- -- 57
2019-04-11 13:00:00 9 5 Sudeste 18 Sudeste 0 -- -- 65
2019-04-11 12:00:00 7.6 10 Sudeste 19 Sudeste 0 -- -- 70
2019-04-11 11:00:00 6.6 4 Este 11 Este 0 -- -- 77
2019-04-11 10:00:00 4.2 4 Nordeste 14 Nordeste 0 -- -- 87
2019-04-11 09:00:00 0.4 0 Calma 5 Este 0.2 -- -- 97
2019-04-11 08:00:00 -1.5 0 Calma 2 Nordeste 0 -- -- 98
2019-04-11 07:00:00 -1 0 Calma 10 Nordeste 0 -- -- 92
2019-04-11 06:00:00 -0.7 0 Calma 6 Norte 0 -- -- 97
2019-04-11 05:00:00 -1.3 0 Calma -- -- 0 -- -- 97
2019-04-11 04:00:00 -0.7 0 Calma -- -- 0 -- -- 96
2019-04-11 03:00:00 0.3 0 Calma 8 Norte 0 -- -- 95
2019-04-11 02:00:00 -0.4 4 Noroeste 6 Noroeste 0 -- -- 97
2019-04-11 01:00:00 1.1 0 Calma -- -- 0 -- -- 96
2019-04-11 00:00:00 1.5 0 Calma 10 Norte 0 -- -- 95
2019-04-10 23:00:00 2.3 5 Noroeste 9 Norte 0 -- -- 95
2019-04-10 22:00:00 3.8 0 Calma 5 Este 0 -- -- 94
2019-04-10 21:00:00 5.6 8 Este 21 Sudeste 0.8 -- -- 90
2019-04-10 20:00:00 7.3 15 Sudeste 27 Este 0 -- -- 82
2019-04-10 19:00:00 8.3 0 Calma 6 Sudeste 0 -- -- 81
2019-04-10 18:00:00 6.6 0 Calma 27 Este 1.4 -- -- 89
2019-04-10 17:00:00 9.2 5 Este 15 Nordeste 0 -- -- 69
2019-04-10 16:00:00 7.6 9 Nordeste 15 Nordeste 0 -- -- 76
2019-04-10 15:00:00 6.2 4 Nordeste 10 Nordeste 0 -- -- 86
2019-04-10 14:00:00 4.9 5 Nordeste 13 Este 0.2 -- -- 92
2019-04-10 13:00:00 3.9 8 Este 12 Este 1 -- -- 94
2019-04-10 12:00:00 3.6 8 Noroeste 17 Oeste 1 -- -- 93
2019-04-10 11:00:00 3.7 10 Noroeste 18 Noroeste 0.2 -- -- 95
2019-04-10 10:00:00 3.3 12 Noroeste 21 Noroeste 0 -- -- 94
2019-04-10 09:00:00 2.8 10 Noroeste 21 Noroeste 0 -- -- 98
2019-04-10 08:00:00 0.7 0 Calma 7 Noroeste 0 -- -- 98
2019-04-10 07:00:00 1.5 4 Noroeste 13 Noroeste 0 -- -- 97
2019-04-10 06:00:00 1.9 6 Noroeste 14 Noroeste 0 -- -- 97
2019-04-10 05:00:00 1.8 7 Noroeste 19 Noroeste 0 -- -- 96
2019-04-10 04:00:00 2.1 9 Noroeste 25 Noroeste 0 -- -- 94
2019-04-10 03:00:00 3 14 Noroeste 27 Noroeste 0 -- -- 92
2019-04-10 02:00:00 3.1 15 Noroeste 27 Oeste 0 -- -- 92
2019-04-10 01:00:00 3.1 13 Noroeste 25 Noroeste 0 -- -- 90
2019-04-10 00:00:00 4.1 14 Noroeste 25 Oeste 0 -- -- 84
2019-04-09 23:00:00 4.1 11 Noroeste 24 Noroeste 0 -- -- 82
2019-04-09 22:00:00 5 14 Noroeste 32 Noroeste 0 -- -- 80
2019-04-09 21:00:00 6.4 14 Noroeste 31 Noroeste 0 -- -- 71
2019-04-09 20:00:00 8.7 22 Noroeste 38 Oeste 0 -- -- 56
2019-04-09 19:00:00 9.4 17 Noroeste 42 Oeste 0 -- -- 62
2019-04-09 18:00:00 10.1 26 Noroeste 49 Noroeste 0 -- -- 60
2019-04-09 17:00:00 8.4 25 Noroeste 39 Oeste 0 -- -- 67
2019-04-09 16:00:00 6.9 18 Noroeste 30 Noroeste 0 -- -- 78
2019-04-09 15:00:00 6.1 18 Noroeste 31 Noroeste 0 -- -- 88
2019-04-09 14:00:00 5.1 12 Noroeste 23 Oeste 0.4 -- -- 95
2019-04-09 13:00:00 4.3 12 Noroeste 27 Oeste 0.8 -- -- 94
2019-04-09 12:00:00 4 18 Oeste 33 Oeste 1.4 -- -- 95
2019-04-09 11:00:00 4.6 18 Oeste 28 Oeste 0.2 -- -- 97
2019-04-09 10:00:00 3.9 18 Oeste 30 Oeste 0.4 -- -- 99
2019-04-09 09:00:00 3.5 14 Oeste 24 Oeste 0.4 -- -- 99
2019-04-09 08:00:00 3.3 8 Oeste 27 Oeste 0.6 -- -- 98
2019-04-09 07:00:00 3.2 14 Oeste 23 Oeste 0.2 -- -- 98
2019-04-09 06:00:00 3.1 15 Oeste 23 Oeste 0.2 -- -- 98
2019-04-09 05:00:00 2.7 13 Oeste 20 Oeste 0 -- -- 97
2019-04-09 04:00:00 1.7 11 Oeste 17 Oeste 0 -- -- 97
2019-04-09 03:00:00 2.7 10 Oeste 22 Oeste 0 -- -- 91
2019-04-09 02:00:00 3.1 14 Oeste 24 Oeste 0 -- -- 91
2019-04-09 01:00:00 2.8 6 Noroeste 17 Oeste 0 -- -- 92
2019-04-09 00:00:00 3.7 10 Noroeste 19 Oeste 0 -- -- 88
2019-04-08 23:00:00 3.5 5 Noroeste 12 Oeste 0 -- -- 84
2019-04-08 22:00:00 5 9 Noroeste 39 Noroeste 0 -- -- 78
2019-04-08 21:00:00 7.7 22 Oeste 40 Oeste 0 -- -- 61
2019-04-08 20:00:00 10 24 Oeste 34 Oeste 0 -- -- 51
2019-04-08 19:00:00 11.1 22 Oeste 36 Oeste 0 -- -- 47
2019-04-08 18:00:00 10.8 22 Oeste 35 Oeste 0 -- -- 51
2019-04-08 17:00:00 11.3 24 Oeste 37 Noroeste 0 -- -- 50
2019-04-08 16:00:00 10.1 19 Oeste 30 Oeste 0 -- -- 54
2019-04-08 15:00:00 10 15 Oeste 29 Oeste 0 -- -- 58
2019-04-08 14:00:00 9.8 20 Noroeste 33 Oeste 0 -- -- 53
2019-04-08 13:00:00 9 21 Oeste 34 Noroeste 0 -- -- 69
2019-04-08 12:00:00 8.1 16 Oeste 31 Oeste 0 -- -- 73
2019-04-08 11:00:00 7 16 Noroeste 27 Noroeste 0 -- -- 86
2019-04-08 10:00:00 5.5 10 Noroeste 24 Noroeste 0 -- -- 98
2019-04-08 09:00:00 4.8 8 Noroeste 16 Noroeste 0 -- -- 100
2019-04-08 08:00:00 5.1 9 Noroeste 15 Noroeste 0 -- -- 100
2019-04-08 07:00:00 4.3 0 Calma -- -- 0.6 -- -- 100
2019-04-08 06:00:00 4 3 Nordeste 8 Nordeste 1 -- -- 100
2019-04-08 05:00:00 3.6 0 Calma 9 Este 0.6 -- -- 100
2019-04-08 04:00:00 3.4 4 Este 8 Este 0.4 -- -- 100
2019-04-08 03:00:00 3.1 6 Este 13 Este 0 -- -- 100
2019-04-08 02:00:00 3.6 9 Este 12 Este 0.4 -- -- 100
2019-04-08 01:00:00 3.3 5 Este 10 Este 0.4 -- -- 99
2019-04-08 00:00:00 3.3 3 Este 6 Este 0.8 -- -- 98
2019-04-07 23:00:00 3.2 0 Calma 6 Oeste 0.8 -- -- 96
2019-04-07 22:00:00 3 7 Oeste 17 Sudoeste 1.2 -- -- 95
2019-04-07 21:00:00 3.5 9 Oeste 26 Sudoeste 0.8 -- -- 94
2019-04-07 20:00:00 4.2 14 Oeste 39 Oeste 0.4 -- -- 93
2019-04-07 19:00:00 5.8 25 Oeste 43 Oeste 0 -- -- 82
2019-04-07 18:00:00 8.4 23 Oeste 37 Oeste 0 -- -- 62
2019-04-07 17:00:00 8.9 18 Oeste 35 Oeste 0 -- -- 56
2019-04-07 16:00:00 9.9 17 Oeste 30 Oeste 0 -- -- 49
2019-04-07 15:00:00 9 20 Oeste 32 Oeste 0 -- -- 51
2019-04-07 14:00:00 8.4 15 Oeste 30 Noroeste 0 -- -- 56
2019-04-07 13:00:00 7.2 15 Oeste 29 Oeste 0 -- -- 60
2019-04-07 12:00:00 5.6 16 Oeste 24 Oeste 0 -- -- 66
2019-04-07 11:00:00 3.6 12 Noroeste 22 Noroeste 0 -- -- 80
2019-04-07 10:00:00 1.9 13 Noroeste 22 Noroeste 0 -- -- 87
2019-04-07 09:00:00 0.2 15 Noroeste 25 Noroeste 0 -- -- 97
2019-04-07 08:00:00 -0.3 15 Noroeste 24 Noroeste 0 -- -- 98
2019-04-07 07:00:00 -0.6 6 Noroeste 19 Noroeste 0 -- -- 97
2019-04-07 06:00:00 -0.3 9 Noroeste 16 Noroeste 0 -- -- 97
2019-04-07 05:00:00 -0.2 11 Noroeste 23 Noroeste 0 -- -- 96
2019-04-07 04:00:00 0.1 10 Noroeste 22 Noroeste 0 -- -- 97
2019-04-07 03:00:00 0.2 12 Noroeste 22 Noroeste 0 -- -- 96
2019-04-07 02:00:00 0.6 11 Noroeste 24 Noroeste 0 -- -- 95
2019-04-07 01:00:00 0.7 9 Noroeste 21 Noroeste 0 -- -- 92
2019-04-07 00:00:00 0.8 9 Noroeste 15 Noroeste 0 -- -- 88
2019-04-06 23:00:00 1.6 10 Noroeste 25 Noroeste 0 -- -- 85
2019-04-06 22:00:00 2 17 Noroeste 36 Noroeste 0 -- -- 88
2019-04-06 21:00:00 3.5 11 Noroeste 34 Noroeste 0 -- -- 85
2019-04-06 20:00:00 4.2 20 Noroeste 49 Noroeste 0 -- -- 79
2019-04-06 19:00:00 6.3 22 Noroeste 51 Noroeste 0 -- -- 76
2019-04-06 18:00:00 5.3 19 Oeste 37 Noroeste 0 -- -- 80
2019-04-06 17:00:00 5 22 Oeste 32 Oeste 0.8 -- -- 89
2019-04-06 16:00:00 1.7 15 Noroeste 37 Oeste 1 -- -- 94
2019-04-06 15:00:00 4.9 22 Oeste 36 Oeste 0 -- -- 85
2019-04-06 14:00:00 3.9 22 Oeste 37 Noroeste 0.4 -- -- 92
2019-04-06 13:00:00 2.9 19 Oeste 37 Oeste 0.2 -- -- 96
2019-04-06 12:00:00 3 21 Oeste 39 Oeste 0.2 -- -- 94
2019-04-06 11:00:00 1.9 24 Oeste 41 Oeste 0 -- -- 93
2019-04-06 10:00:00 1.2 18 Oeste 37 Oeste 0 -- -- 99
2019-04-06 09:00:00 1 15 Oeste 25 Oeste 0.2 -- -- 100
2019-04-06 08:00:00 0.5 12 Oeste 23 Oeste 0.2 -- -- 100
2019-04-06 07:00:00 0.3 14 Oeste 26 Oeste 0 -- -- 100
2019-04-06 06:00:00 0.1 13 Oeste 26 Oeste 0 -- -- 100
2019-04-06 05:00:00 -0.1 16 Oeste 24 Oeste 0 -- -- 100
2019-04-06 04:00:00 -0.4 13 Noroeste 23 Oeste 0 -- -- 99
2019-04-06 03:00:00 -1 8 Oeste 14 Oeste 0 -- -- 98
2019-04-06 02:00:00 0.3 11 Noroeste 22 Noroeste 0 -- -- 95
2019-04-06 01:00:00 0.8 9 Noroeste 19 Noroeste 0 -- -- 94
2019-04-06 00:00:00 0.7 8 Noroeste 13 Noroeste 0 -- -- 92
2019-04-05 23:00:00 0.9 7 Noroeste 17 Oeste 0 -- -- 89
2019-04-05 22:00:00 2 8 Noroeste 19 Oeste 0 -- -- 89
2019-04-05 21:00:00 2.7 13 Oeste 31 Oeste 0 -- -- 83
2019-04-05 20:00:00 6.2 14 Noroeste 30 Oeste 0 -- -- 55
2019-04-05 19:00:00 6.4 12 Noroeste 28 Oeste 0 -- -- 57
2019-04-05 18:00:00 6.7 17 Noroeste 37 Noroeste 0 -- -- 62
2019-04-05 17:00:00 7.8 21 Oeste 37 Oeste 0 -- -- 49
2019-04-05 16:00:00 6.9 23 Oeste 35 Oeste 0 -- -- 57
2019-04-05 15:00:00 6.1 18 Oeste 30 Oeste 0 -- -- 64
2019-04-05 14:00:00 5 17 Oeste 30 Sudoeste 0 -- -- 70
2019-04-05 13:00:00 4.3 16 Oeste 24 Oeste 0 -- -- 81
2019-04-05 12:00:00 3.7 14 Oeste 22 Oeste 0 -- -- 86
2019-04-05 11:00:00 3 12 Oeste 21 Oeste 0 -- -- 91
2019-04-05 10:00:00 2.8 15 Oeste 23 Oeste 0 -- -- 95
2019-04-05 09:00:00 2.5 14 Oeste 23 Oeste 0 -- -- 98
2019-04-05 08:00:00 2.4 14 Oeste 26 Oeste 0.4 -- -- 97
2019-04-05 07:00:00 2.6 14 Oeste 24 Oeste 0 -- -- 98
2019-04-05 06:00:00 2.5 16 Oeste 31 Oeste 0 -- -- 98
2019-04-05 05:00:00 2.3 14 Oeste 30 Oeste 0.2 -- -- 99
2019-04-05 04:00:00 2.3 14 Oeste 28 Sudoeste 0.6 -- -- 98
2019-04-05 03:00:00 2 14 Sudoeste 27 Sudoeste 1.4 -- -- 97
2019-04-05 02:00:00 2 10 Sudoeste 23 Sudoeste 0.8 -- -- 98
2019-04-05 01:00:00 1.5 9 Sudoeste 19 Sudoeste 1 -- -- 98
2019-04-05 00:00:00 1.4 12 Oeste 19 Sudoeste 1 -- -- 98
2019-04-04 23:00:00 1.4 9 Oeste 30 Oeste 1 -- -- 97
2019-04-04 22:00:00 1.5 16 Oeste 28 Oeste 1 -- -- 97
2019-04-04 21:00:00 1.7 15 Oeste 26 Oeste 1 -- -- 96
2019-04-04 20:00:00 1.9 16 Oeste 41 Oeste 0.6 -- -- 92
2019-04-04 19:00:00 5.3 24 Oeste 45 Oeste 0 -- -- 61
2019-04-04 18:00:00 7.5 27 Oeste 39 Oeste 0 -- -- 45
2019-04-04 17:00:00 8.2 23 Oeste 40 Oeste 0 -- -- 44
2019-04-04 16:00:00 8 24 Oeste 41 Oeste 0 -- -- 46
2019-04-04 15:00:00 7.4 22 Oeste 38 Oeste 0 -- -- 47
2019-04-04 14:00:00 5.5 26 Oeste 47 Oeste 0 -- -- 54
2019-04-04 13:00:00 6 23 Oeste 42 Noroeste 0 -- -- 55
2019-04-04 12:00:00 4.7 20 Oeste 30 Noroeste 0 -- -- 62
2019-04-04 11:00:00 2.4 15 Oeste 24 Oeste 0 -- -- 72
2019-04-04 10:00:00 0.1 9 Noroeste 21 Noroeste 0 -- -- 86
2019-04-04 09:00:00 -2.6 7 Noroeste 13 Noroeste 0 -- -- 95
2019-04-04 08:00:00 -5.1 8 Noroeste 13 Noroeste 0 -- -- 95
2019-04-04 07:00:00 -4.3 6 Noroeste 15 Oeste 0 -- -- 94
2019-04-04 06:00:00 -3.4 10 Noroeste 20 Noroeste 0 -- -- 90
2019-04-04 05:00:00 -3 11 Noroeste 17 Noroeste 0 -- -- 86
2019-04-04 04:00:00 -2.6 7 Noroeste 16 Noroeste 0 -- -- 84
2019-04-04 03:00:00 -2.8 6 Noroeste 15 Noroeste 0 -- -- 85
2019-04-04 02:00:00 -2.4 8 Noroeste 15 Noroeste 0 -- -- 81
2019-04-04 01:00:00 -2 9 Noroeste 15 Noroeste 0 -- -- 80
2019-04-04 00:00:00 -1.3 8 Noroeste 17 Noroeste 0 -- -- 79
2019-04-03 23:00:00 -1.9 6 Noroeste 9 Noroeste 0 -- -- 83
2019-04-03 22:00:00 -0.4 6 Noroeste 13 Norte 0 -- -- 77
2019-04-03 21:00:00 1.5 6 Norte 28 Norte 0 -- -- 66
2019-04-03 20:00:00 3.8 8 Norte 38 Norte 0 -- -- 56
2019-04-03 19:00:00 5.6 16 Nordeste 32 Noroeste 0 -- -- 50
2019-04-03 18:00:00 6.6 16 Norte 36 Nordeste 0 -- -- 44
2019-04-03 17:00:00 7.5 14 Norte 44 Noroeste 0 -- -- 42
2019-04-03 16:00:00 5.7 17 Nordeste 41 Nordeste 0 -- -- 57
2019-04-03 15:00:00 7.6 19 Noroeste 48 Noroeste 0 -- -- 45
2019-04-03 14:00:00 7 15 Norte 33 Noroeste 0 -- -- 55
2019-04-03 13:00:00 5.7 13 Noroeste 31 Noroeste 0.4 -- -- 64
2019-04-03 12:00:00 4.7 14 Noroeste 28 Norte 0 -- -- 70
2019-04-03 11:00:00 4.5 11 Noroeste 24 Oeste 0 -- -- 65
2019-04-03 10:00:00 3.3 14 Noroeste 21 Noroeste 0 -- -- 74
2019-04-03 09:00:00 1.7 8 Noroeste 14 Noroeste 0 -- -- 86
2019-04-03 08:00:00 -0.4 7 Noroeste 14 Noroeste 0 -- -- 93
2019-04-03 07:00:00 0.2 5 Norte 12 Norte 0 -- -- 87
2019-04-03 06:00:00 1.2 5 Noroeste 11 Noroeste 0 -- -- 89
2019-04-03 05:00:00 1.5 6 Noroeste 9 Noroeste 0 -- -- 91
2019-04-03 04:00:00 0.6 5 Noroeste 11 Norte 0 -- -- 87
2019-04-03 03:00:00 1.8 6 Norte 12 Norte 0 -- -- 88
2019-04-03 02:00:00 1.4 5 Noroeste 10 Noroeste 0 -- -- 92
2019-04-03 01:00:00 2.9 0 Calma 12 Norte 0 -- -- 84
2019-04-03 00:00:00 4.8 7 Norte 13 Norte 0 -- -- 78
2019-04-02 23:00:00 5.8 2 Nordeste 11 Nordeste 0 -- -- 78
2019-04-02 22:00:00 6.2 5 Nordeste 13 Nordeste 0 -- -- 83
2019-04-02 21:00:00 7.7 11 Este 27 Este 0 -- -- 75
2019-04-02 20:00:00 14.3 16 Noroeste 32 Oeste 0 -- -- 32
2019-04-02 19:00:00 14.9 14 Noroeste 27 Oeste 0 -- -- 36
2019-04-02 18:00:00 13.6 6 Noroeste 27 Oeste 0 -- -- 42
2019-04-02 17:00:00 15.2 14 Noroeste 31 Noroeste 0 -- -- 41
2019-04-02 16:00:00 13.1 11 Oeste 27 Oeste 0 -- -- 46
2019-04-02 15:00:00 12.5 4 Sudeste 25 Sur 0 -- -- 51
2019-04-02 14:00:00 12.5 6 Sudoeste 16 Sudoeste 0 -- -- 53
2019-04-02 13:00:00 12.2 9 Sur 15 Sur 0 -- -- 53
2019-04-02 12:00:00 10.7 5 Sur 12 Sur 0 -- -- 58
2019-04-02 11:00:00 9.7 8 Sur 13 Sudeste 0 -- -- 63
2019-04-02 10:00:00 6.2 0 Calma 11 Nordeste 0 -- -- 75
2019-04-02 09:00:00 4.7 7 Nordeste 12 Nordeste 0 -- -- 78
2019-04-02 08:00:00 3.9 5 Nordeste 10 Nordeste 0 -- -- 85
2019-04-02 07:00:00 2.8 0 Calma 7 Nordeste 0 -- -- 90
2019-04-02 06:00:00 2.6 0 Calma 9 Nordeste 0 -- -- 88
2019-04-02 05:00:00 4 6 Nordeste 10 Este 0 -- -- 82
2019-04-02 04:00:00 3.6 5 Este 8 Este 0 -- -- 85
2019-04-02 03:00:00 3.9 0 Calma 9 Nordeste 0 -- -- 84
2019-04-02 02:00:00 5 7 Nordeste 9 Nordeste 0 -- -- 85
2019-04-02 01:00:00 6.2 9 Este 13 Este 0 -- -- 82
2019-04-02 00:00:00 5.2 10 Este 13 Este 0 -- -- 84
2019-04-01 23:00:00 6.7 7 Este 21 Este 0 -- -- 78
2019-04-01 22:00:00 9.6 15 Este 25 Este 0 -- -- 70
2019-04-01 21:00:00 11 5 Sudeste 9 Sudeste 0 -- -- 58
2019-04-01 20:00:00 12.2 5 Sudoeste 12 Sur 0 -- -- 51
2019-04-01 19:00:00 13.7 8 Sur 14 Sur 0 -- -- 46
2019-04-01 18:00:00 13.9 9 Sur 22 Sudoeste 0 -- -- 43
2019-04-01 17:00:00 14.7 11 Sur 28 Este 0 -- -- 43
2019-04-01 16:00:00 15 10 Oeste 27 Sudoeste 0 -- -- 40
2019-04-01 15:00:00 14.5 12 Sudoeste 23 Sudoeste 0 -- -- 45
2019-04-01 14:00:00 13.1 9 Sur 22 Oeste 0 -- -- 53
2019-04-01 13:00:00 12.3 10 Sudoeste 20 Sur 0 -- -- 58
2019-04-01 12:00:00 10.7 7 Sur 13 Sur 0 -- -- 62
2019-04-01 11:00:00 9.3 5 Sur 10 Sur 0 -- -- 66
2019-04-01 10:00:00 7.4 4 Nordeste 11 Nordeste 0 -- -- 74
2019-04-01 09:00:00 3.4 7 Nordeste 13 Nordeste 0 -- -- 87
2019-04-01 08:00:00 2.7 8 Nordeste 13 Nordeste 0 -- -- 88
2019-04-01 07:00:00 2.1 8 Nordeste 12 Nordeste 0 -- -- 88
2019-04-01 06:00:00 2 7 Nordeste 11 Nordeste 0 -- -- 84
2019-04-01 05:00:00 2.3 6 Nordeste 11 Nordeste 0 -- -- 84
2019-04-01 04:00:00 1.9 4 Nordeste 8 Nordeste 0 -- -- 85
2019-04-01 03:00:00 2.2 0 Calma -- -- 0 -- -- 88
2019-04-01 02:00:00 3.3 0 Calma -- -- 0 -- -- 86
2019-04-01 01:00:00 4.7 0 Calma 9 Sudeste 0 -- -- 82
2019-04-01 00:00:00 6.2 7 Sudeste 19 Sudeste 0 -- -- 76
2019-03-31 23:00:00 8.2 14 Sudeste 22 Sudeste 0 -- -- 65
2019-03-31 22:00:00 9.9 15 Este 23 Sudeste 0 -- -- 52
2019-03-31 21:00:00 11.3 15 Este 27 Este 0 -- -- 46
2019-03-31 20:00:00 13.7 15 Este 30 Este 0 -- -- 38
2019-03-31 19:00:00 15 17 Este 28 Este 0 -- -- 33
2019-03-31 18:00:00 15.5 19 Este 32 Este 0 -- -- 29
2019-03-31 17:00:00 14.7 18 Este 30 Sudeste 0 -- -- 35
2019-03-31 16:00:00 15.7 19 Sudeste 33 Sudeste 0 -- -- 36
2019-03-31 15:00:00 15.9 17 Sudeste 36 Sudeste 0 -- -- 35
2019-03-31 14:00:00 14.7 20 Sudeste 33 Sudeste 0 -- -- 37
2019-03-31 13:00:00 14.1 18 Sudeste 28 Sudeste 0 -- -- 38
2019-03-31 12:00:00 12.7 16 Sudeste 26 Sudeste 0 -- -- 43
2019-03-31 11:00:00 11.1 16 Sudeste 24 Este 0 -- -- 47
2019-03-31 10:00:00 8.8 16 Este 23 Este 0 -- -- 56
2019-03-31 09:00:00 5.4 12 Este 17 Este 0 -- -- 66
2019-03-31 08:00:00 2.2 8 Este 17 Este 0 -- -- 76
2019-03-31 07:00:00 2.7 11 Este 14 Este 0 -- -- 75
2019-03-31 06:00:00 4 9 Este 13 Este 0 -- -- 72
2019-03-31 05:00:00 3.3 8 Este 15 Este 0 -- -- 75
2019-03-31 03:00:00 4.6 5 Este 14 Este 0 -- -- 75
2019-03-31 01:00:00 7 7 Este 17 Este 0 -- -- 70
2019-03-31 00:00:00 8.1 10 Este 16 Este 0 -- -- 71
2019-03-30 23:00:00 7 9 Este 13 Este 0 -- -- 74
2019-03-30 22:00:00 7.6 8 Este 14 Sudeste 0 -- -- 65
2019-03-30 21:00:00 9.7 9 Sudeste 18 Sudeste 0 -- -- 53
2019-03-30 20:00:00 9.5 0 Calma 7 Oeste 0 -- -- 52
2019-03-30 19:00:00 13.7 5 Sudoeste 13 Sudoeste 0 -- -- 39
2019-03-30 18:00:00 15.6 9 Sudoeste 18 Sudeste 0 -- -- 33
2019-03-30 17:00:00 16 7 Sudoeste 15 Sudoeste 0 -- -- 32
2019-03-30 16:00:00 15.7 10 Sur 20 Sudeste 0 -- -- 34
2019-03-30 15:00:00 15.1 12 Sur 28 Sur 0 -- -- 38
2019-03-30 14:00:00 14.2 10 Sudoeste 21 Sur 0 -- -- 41
2019-03-30 13:00:00 12.9 10 Sur 19 Sudeste 0 -- -- 46
2019-03-30 12:00:00 11.8 9 Sudeste 17 Sudeste 0 -- -- 52
2019-03-30 11:00:00 10.3 9 Sur 16 Sudeste 0 -- -- 55
2019-03-30 10:00:00 9 12 Sur 17 Sudeste 0 -- -- 57
2019-03-30 09:00:00 7.2 11 Sudeste 16 Sudeste 0 -- -- 61
2019-03-30 08:00:00 3.7 10 Este 15 Este 0 -- -- 71
2019-03-30 07:00:00 3 9 Nordeste 11 Nordeste 0 -- -- 70
2019-03-30 06:00:00 3.5 7 Nordeste 13 Nordeste 0 -- -- 69
2019-03-30 05:00:00 3.7 9 Este 12 Nordeste 0 -- -- 66
2019-03-30 04:00:00 3.4 4 Este 12 Sudeste 0 -- -- 66
2019-03-30 03:00:00 2.6 5 Sudeste 14 Sur 0 -- -- 71
2019-03-30 02:00:00 3 0 Calma -- -- 0 -- -- 67
2019-03-30 01:00:00 4.4 2 Sudoeste 24 Sur 0 -- -- 62
2019-03-30 00:00:00 3.4 0 Calma 5 Nordeste 0 -- -- 65
2019-03-29 23:00:00 5.2 2 Este 9 Sur 0 -- -- 59
2019-03-29 22:00:00 5.3 5 Oeste 6 Oeste 0 -- -- 58
2019-03-29 21:00:00 7.3 5 Oeste 8 Sudoeste 0 -- -- 52
2019-03-29 20:00:00 10.8 6 Oeste 10 Sudoeste 0 -- -- 43
2019-03-29 19:00:00 15.3 8 Oeste 19 Oeste 0 -- -- 31
2019-03-29 18:00:00 16 11 Sudoeste 22 Oeste 0 -- -- 31
2019-03-29 17:00:00 16.7 8 Sudoeste 26 Oeste 0 -- -- 31
2019-03-29 16:00:00 16.5 12 Oeste 23 Sudoeste 0 -- -- 30
2019-03-29 15:00:00 15.7 12 Oeste 24 Oeste 0 -- -- 32
2019-03-29 14:00:00 15.4 12 Sudoeste 25 Sudoeste 0 -- -- 36
2019-03-29 13:00:00 13.9 10 Sur 27 Sur 0 -- -- 39
2019-03-29 12:00:00 11.9 12 Sur 23 Sur 0 -- -- 46
2019-03-29 11:00:00 10.1 12 Sur 20 Sudeste 0 -- -- 52
2019-03-29 10:00:00 8.8 13 Sudeste 19 Sudeste 0 -- -- 56
2019-03-29 09:00:00 7 10 Sudeste 15 Sudeste 0 -- -- 62
2019-03-29 08:00:00 3 7 Nordeste 13 Este 0 -- -- 73
2019-03-29 07:00:00 1.5 8 Este 13 Este 0 -- -- 75
2019-03-29 06:00:00 1.6 11 Este 14 Este 0 -- -- 73
2019-03-29 05:00:00 1.8 11 Este 14 Este 0 -- -- 71
2019-03-29 04:00:00 2.7 9 Este 15 Este 0 -- -- 67
2019-03-29 03:00:00 4.2 11 Este 23 Este 0 -- -- 63
2019-03-29 02:00:00 4.4 12 Este 22 Este 0 -- -- 63
2019-03-29 01:00:00 6 15 Este 28 Este 0 -- -- 57
2019-03-29 00:00:00 6.3 15 Este 28 Este 0 -- -- 58
2019-03-28 23:00:00 5.3 11 Este 21 Este 0 -- -- 60
2019-03-28 22:00:00 6.1 15 Este 20 Este 0 -- -- 61
2019-03-28 21:00:00 6.9 14 Este 28 Este 0 -- -- 63
2019-03-28 20:00:00 9.5 16 Este 35 Este 0 -- -- 49
2019-03-28 19:00:00 11.8 23 Este 38 Este 0 -- -- 48
2019-03-28 18:00:00 13.8 24 Este 37 Este 0 -- -- 43
2019-03-28 17:00:00 15 22 Este 37 Este 0 -- -- 40
2019-03-28 16:00:00 15.2 24 Este 39 Este 0 -- -- 38
2019-03-28 15:00:00 15.5 22 Este 39 Este 0 -- -- 34
2019-03-28 14:00:00 14.9 22 Este 40 Este 0 -- -- 32
2019-03-28 13:00:00 14.2 24 Este 47 Este 0 -- -- 29
2019-03-28 12:00:00 12.9 23 Este 35 Este 0 -- -- 28
2019-03-28 11:00:00 11.4 22 Este 38 Sudeste 0 -- -- 31
2019-03-28 10:00:00 8.3 12 Sudeste 18 Sudeste 0 -- -- 46
2019-03-28 09:00:00 4.6 10 Este 15 Este 0 -- -- 64
2019-03-28 08:00:00 -0.1 0 Calma 7 Este 0 -- -- 74
2019-03-28 07:00:00 -1.7 0 Calma 9 Sudeste 0 -- -- 73
2019-03-28 06:00:00 -1.9 9 Este 12 Este 0 -- -- 68
2019-03-28 05:00:00 -0.6 6 Este 10 Este 0 -- -- 52
2019-03-28 04:00:00 1 8 Sudeste 13 Sudeste 0 -- -- 45
2019-03-28 03:00:00 1.1 0 Calma 30 Sudeste 0 -- -- 47
2019-03-28 02:00:00 4.7 19 Sudeste 28 Sudeste 0 -- -- 33
2019-03-28 01:00:00 4.8 16 Sudeste 31 Sudeste 0 -- -- 37
2019-03-28 00:00:00 4.8 15 Sudeste 26 Este 0 -- -- 42
2019-03-27 23:00:00 5.5 15 Sudeste 23 Sudeste 0 -- -- 44
2019-03-27 22:00:00 5.9 9 Sudeste 22 Sudeste 0 -- -- 43
2019-03-27 21:00:00 7.1 11 Sudeste 26 Sudeste 0 -- -- 37
2019-03-27 20:00:00 9.1 19 Sudeste 27 Sudeste 0 -- -- 33
2019-03-27 19:00:00 11.8 19 Sudeste 40 Este 0 -- -- 29
2019-03-27 18:00:00 13.9 24 Este 49 Este 0 -- -- 25
2019-03-27 17:00:00 14.6 30 Este 50 Este 0 -- -- 25
2019-03-27 16:00:00 14.9 23 Este 49 Este 0 -- -- 27
2019-03-27 15:00:00 14.8 30 Este 48 Este 0 -- -- 25
2019-03-27 14:00:00 14.7 34 Este 48 Este 0 -- -- 22
2019-03-27 13:00:00 14.8 28 Este 51 Este 0 -- -- 24
2019-03-27 12:00:00 13.8 31 Este 50 Sudeste 0 -- -- 20
2019-03-27 11:00:00 12.1 31 Este 49 Este 0 -- -- 18
2019-03-27 10:00:00 11.4 26 Este 41 Este 0 -- -- 16
2019-03-27 09:00:00 9.2 15 Este 42 Este 0 -- -- 22
2019-03-27 08:00:00 5.4 16 Este 27 Este 0 -- -- 29
2019-03-27 07:00:00 4.1 17 Este 24 Este 0 -- -- 35
2019-03-27 06:00:00 3.7 11 Este 30 Este 0 -- -- 39
2019-03-27 05:00:00 3.9 13 Este 21 Este 0 -- -- 36
2019-03-27 04:00:00 3.1 3 Este 19 Este 0 -- -- 42
2019-03-27 03:00:00 3.8 5 Este 36 Este 0 -- -- 43
2019-03-27 02:00:00 4.4 27 Este 44 Este 0 -- -- 47
2019-03-27 01:00:00 4 30 Este 49 Este 0 -- -- 51
2019-03-27 00:00:00 4.3 35 Este 55 Este 0 -- -- 44
2019-03-26 23:00:00 5 40 Este 56 Este 0 -- -- 37
2019-03-26 22:00:00 5.3 33 Este 50 Este 0 -- -- 28
2019-03-26 21:00:00 5.8 30 Este 49 Este 0 -- -- 30
2019-03-26 20:00:00 6.9 32 Este 60 Este 0 -- -- 32
2019-03-26 19:00:00 8.8 44 Este 60 Este 0 -- -- 32
2019-03-26 18:00:00 10.5 49 Este 63 Este 0 -- -- 32
2019-03-26 17:00:00 12.6 36 Este 58 Este 0 -- -- 23
2019-03-26 16:00:00 13.1 34 Este 59 Este 0 -- -- 21
2019-03-26 15:00:00 13.3 35 Este 62 Este 0 -- -- 21
2019-03-26 14:00:00 12.7 40 Este 63 Este 0 -- -- 20
2019-03-26 13:00:00 12 36 Este 61 Este 0 -- -- 23
2019-03-26 12:00:00 10.4 40 Este 62 Este 0 -- -- 27
2019-03-26 11:00:00 8.9 45 Este 73 Este 0 -- -- 29
2019-03-26 10:00:00 7.1 40 Este 67 Este 0 -- -- 37
2019-03-26 09:00:00 4.9 29 Este 42 Sudeste 0 -- -- 52
2019-03-26 08:00:00 3 31 Este 59 Este 0 -- -- 70
2019-03-26 07:00:00 1.8 10 Sudeste 33 Este 0 -- -- 79
2019-03-26 06:00:00 2.5 24 Este 46 Este 0 -- -- 77
2019-03-26 05:00:00 2.6 26 Este 48 Este 0 -- -- 80
2019-03-26 04:00:00 2.7 29 Este 59 Este 0 -- -- 82
2019-03-26 03:00:00 3.2 36 Este 57 Este 0 -- -- 81
2019-03-26 02:00:00 2.2 30 Este 52 Este 0 -- -- 75
2019-03-26 01:00:00 2.3 24 Este 38 Sudeste 0 -- -- 74
2019-03-26 00:00:00 2.6 19 Sudeste 34 Sudeste 0 -- -- 70
2019-03-25 23:00:00 4.5 25 Este 37 Este 0 -- -- 51
2019-03-25 22:00:00 5.5 26 Este 37 Este 0 -- -- 44
2019-03-25 21:00:00 5.8 19 Este 36 Este 0 -- -- 45
2019-03-25 20:00:00 6.4 26 Este 34 Este 0 -- -- 47
2019-03-25 19:00:00 8.9 23 Este 40 Este 0 -- -- 45
2019-03-25 18:00:00 10.8 30 Este 55 Este 0 -- -- 43
2019-03-25 17:00:00 11.7 32 Este 49 Este 0 -- -- 41
2019-03-25 16:00:00 12.5 29 Este 45 Este 0 -- -- 44
2019-03-25 15:00:00 12.3 26 Este 42 Este 0 -- -- 51
2019-03-25 14:00:00 12.5 24 Este 41 Sudeste 0 -- -- 52
2019-03-25 13:00:00 11.8 23 Este 39 Este 0 -- -- 54
2019-03-25 12:00:00 11.1 21 Este 36 Este 0 -- -- 57
2019-03-25 11:00:00 9.8 20 Sudeste 32 Este 0 -- -- 63
2019-03-25 10:00:00 8.2 18 Sudeste 29 Sudeste 0 -- -- 70
2019-03-25 09:00:00 5.4 11 Este 16 Sudeste 0 -- -- 85
2019-03-25 08:00:00 1.9 9 Este 12 Este 0 -- -- 96
2019-03-25 07:00:00 0 9 Este 13 Este 0 -- -- 95
2019-03-25 06:00:00 1.4 12 Este 19 Este 0 -- -- 91
2019-03-25 05:00:00 1.8 10 Nordeste 15 Nordeste 0 -- -- 87
2019-03-25 04:00:00 2.2 9 Este 16 Este 0 -- -- 81
2019-03-25 03:00:00 4.6 13 Este 18 Este 0 -- -- 73
2019-03-25 02:00:00 5.5 10 Este 17 Este 0 -- -- 69
2019-03-25 01:00:00 5.3 10 Este 23 Este 0 -- -- 73
2019-03-25 00:00:00 6.3 8 Este 22 Sudeste 0 -- -- 71